sensor_id;sensor_type;location;lat;lon;timestamp;temperature;humidity
66343;DHT22;53144;51.524;5.080;2023-10-31T00:01:38;10.13;99.99
66343;DHT22;53144;51.524;5.080;2023-10-31T00:04:03;10.09;99.99
66343;DHT22;53144;51.524;5.080;2023-10-31T00:06:28;10.00;99.99
66343;DHT22;53144;51.524;5.080;2023-10-31T00:08:53;9.96;99.99
66343;DHT22;53144;51.524;5.080;2023-10-31T00:11:19;10.07;99.99
66343;DHT22;53144;51.524;5.080;2023-10-31T00:13:44;10.06;99.99
66343;DHT22;53144;51.524;5.080;2023-10-31T00:16:09;10.12;99.99
66343;DHT22;53144;51.524;5.080;2023-10-31T00:18:35;10.12;99.99
66343;DHT22;53144;51.524;5.080;2023-10-31T00:21:00;10.17;99.99
66343;DHT22;53144;51.524;5.080;2023-10-31T00:23:25;10.12;99.99
66343;DHT22;53144;51.524;5.080;2023-10-31T00:25:54;10.14;99.99
66343;DHT22;53144;51.524;5.080;2023-10-31T00:28:19;10.07;99.99
66343;DHT22;53144;51.524;5.080;2023-10-31T00:30:44;10.06;99.99
66343;DHT22;53144;51.524;5.080;2023-10-31T00:33:10;10.06;99.99
66343;DHT22;53144;51.524;5.080;2023-10-31T00:35:35;10.14;99.99
66343;DHT22;53144;51.524;5.080;2023-10-31T00:38:00;10.16;99.99
66343;DHT22;53144;51.524;5.080;2023-10-31T00:40:25;10.17;99.99
66343;DHT22;53144;51.524;5.080;2023-10-31T00:42:54;10.17;99.99
66343;DHT22;53144;51.524;5.080;2023-10-31T00:45:24;10.16;99.99
66343;DHT22;53144;51.524;5.080;2023-10-31T00:47:49;10.21;99.99
66343;DHT22;53144;51.524;5.080;2023-10-31T00:50:14;10.20;99.99
66343;DHT22;53144;51.524;5.080;2023-10-31T00:52:40;10.24;99.99
66343;DHT22;53144;51.524;5.080;2023-10-31T00:55:05;10.19;99.99
66343;DHT22;53144;51.524;5.080;2023-10-31T00:57:30;10.20;99.99
66343;DHT22;53144;51.524;5.080;2023-10-31T00:59:56;10.27;99.99
66343;DHT22;53144;51.524;5.080;2023-10-31T01:02:24;10.27;99.99
66343;DHT22;53144;51.524;5.080;2023-10-31T01:04:49;10.20;99.99
66343;DHT22;53144;51.524;5.080;2023-10-31T01:07:14;10.19;99.99
66343;DHT22;53144;51.524;5.080;2023-10-31T01:09:42;10.21;99.99
66343;DHT22;53144;51.524;5.080;2023-10-31T01:12:07;10.24;99.99
66343;DHT22;53144;51.524;5.080;2023-10-31T01:14:32;10.27;99.99
66343;DHT22;53144;51.524;5.080;2023-10-31T01:16:58;10.30;99.99
66343;DHT22;53144;51.524;5.080;2023-10-31T01:19:23;10.27;99.99
66343;DHT22;53144;51.524;5.080;2023-10-31T01:21:48;10.33;99.99
66343;DHT22;53144;51.524;5.080;2023-10-31T01:24:14;10.32;99.99
66343;DHT22;53144;51.524;5.080;2023-10-31T01:26:39;10.36;99.99
66343;DHT22;53144;51.524;5.080;2023-10-31T01:29:05;10.34;99.99
66343;DHT22;53144;51.524;5.080;2023-10-31T01:31:30;10.36;99.99
66343;DHT22;53144;51.524;5.080;2023-10-31T01:33:57;10.36;99.99
66343;DHT22;53144;51.524;5.080;2023-10-31T01:36:26;10.41;99.99
66343;DHT22;53144;51.524;5.080;2023-10-31T01:38:54;10.34;99.99
66343;DHT22;53144;51.524;5.080;2023-10-31T01:41:19;10.36;99.99
66343;DHT22;53144;51.524;5.080;2023-10-31T01:43:45;10.36;99.99
66343;DHT22;53144;51.524;5.080;2023-10-31T01:46:10;10.34;99.99
66343;DHT22;53144;51.524;5.080;2023-10-31T01:48:36;10.36;99.99
66343;DHT22;53144;51.524;5.080;2023-10-31T01:51:02;10.34;99.99
66343;DHT22;53144;51.524;5.080;2023-10-31T01:53:28;10.36;99.99
66343;DHT22;53144;51.524;5.080;2023-10-31T01:55:56;10.43;99.99
66343;DHT22;53144;51.524;5.080;2023-10-31T01:58:23;10.41;99.99
66343;DHT22;53144;51.524;5.080;2023-10-31T02:00:50;10.40;99.99
66343;DHT22;53144;51.524;5.080;2023-10-31T02:03:16;10.41;99.99
66343;DHT22;53144;51.524;5.080;2023-10-31T02:05:41;10.40;99.99
66343;DHT22;53144;51.524;5.080;2023-10-31T02:08:06;10.44;99.99
66343;DHT22;53144;51.524;5.080;2023-10-31T02:10:35;10.36;99.99
66343;DHT22;53144;51.524;5.080;2023-10-31T02:13:10;10.40;99.99
66343;DHT22;53144;51.524;5.080;2023-10-31T02:15:35;10.48;99.99
66343;DHT22;53144;51.524;5.080;2023-10-31T02:18:00;10.50;99.99
66343;DHT22;53144;51.524;5.080;2023-10-31T02:20:26;10.41;99.99
66343;DHT22;53144;51.524;5.080;2023-10-31T02:22:51;10.41;99.99
66343;DHT22;53144;51.524;5.080;2023-10-31T02:25:17;10.47;99.99
66343;DHT22;53144;51.524;5.080;2023-10-31T02:27:43;10.50;99.99
66343;DHT22;53144;51.524;5.080;2023-10-31T02:30:08;10.51;99.99
66343;DHT22;53144;51.524;5.080;2023-10-31T02:32:33;10.54;99.99
66343;DHT22;53144;51.524;5.080;2023-10-31T02:34:59;10.46;99.99
66343;DHT22;53144;51.524;5.080;2023-10-31T02:37:24;10.43;99.99
66343;DHT22;53144;51.524;5.080;2023-10-31T02:39:49;10.48;99.99
66343;DHT22;53144;51.524;5.080;2023-10-31T02:42:14;10.47;99.99
66343;DHT22;53144;51.524;5.080;2023-10-31T02:44:40;10.46;99.99
66343;DHT22;53144;51.524;5.080;2023-10-31T02:47:05;10.51;99.99
66343;DHT22;53144;51.524;5.080;2023-10-31T02:49:30;10.47;99.99
66343;DHT22;53144;51.524;5.080;2023-10-31T02:51:56;10.44;99.99
66343;DHT22;53144;51.524;5.080;2023-10-31T02:54:21;10.44;99.99
66343;DHT22;53144;51.524;5.080;2023-10-31T02:56:46;10.50;99.99
66343;DHT22;53144;51.524;5.080;2023-10-31T02:59:12;10.47;99.99
66343;DHT22;53144;51.524;5.080;2023-10-31T03:01:37;10.51;99.99
66343;DHT22;53144;51.524;5.080;2023-10-31T03:04:02;10.48;99.99
66343;DHT22;53144;51.524;5.080;2023-10-31T03:06:28;10.48;99.99
66343;DHT22;53144;51.524;5.080;2023-10-31T03:08:53;10.46;99.99
66343;DHT22;53144;51.524;5.080;2023-10-31T03:11:22;10.46;99.99
66343;DHT22;53144;51.524;5.080;2023-10-31T03:13:48;10.48;99.99
66343;DHT22;53144;51.524;5.080;2023-10-31T03:16:13;10.44;99.99
66343;DHT22;53144;51.524;5.080;2023-10-31T03:18:39;10.48;99.99
66343;DHT22;53144;51.524;5.080;2023-10-31T03:21:04;10.54;99.99
66343;DHT22;53144;51.524;5.080;2023-10-31T03:23:30;10.47;99.99
66343;DHT22;53144;51.524;5.080;2023-10-31T03:25:55;10.48;99.99
66343;DHT22;53144;51.524;5.080;2023-10-31T03:28:20;10.46;99.99
66343;DHT22;53144;51.524;5.080;2023-10-31T03:30:49;10.47;99.99
66343;DHT22;53144;51.524;5.080;2023-10-31T03:33:15;10.43;99.99
66343;DHT22;53144;51.524;5.080;2023-10-31T03:35:41;10.47;99.99
66343;DHT22;53144;51.524;5.080;2023-10-31T03:38:07;10.48;99.99
66343;DHT22;53144;51.524;5.080;2023-10-31T03:40:32;10.48;99.99
66343;DHT22;53144;51.524;5.080;2023-10-31T03:42:57;10.47;99.99
66343;DHT22;53144;51.524;5.080;2023-10-31T03:45:23;10.46;99.99
66343;DHT22;53144;51.524;5.080;2023-10-31T03:47:48;10.43;99.99
66343;DHT22;53144;51.524;5.080;2023-10-31T03:50:13;10.43;99.99
66343;DHT22;53144;51.524;5.080;2023-10-31T03:52:39;10.37;99.99
66343;DHT22;53144;51.524;5.080;2023-10-31T03:55:04;10.37;99.99
66343;DHT22;53144;51.524;5.080;2023-10-31T03:57:29;10.32;99.99
66343;DHT22;53144;51.524;5.080;2023-10-31T03:59:55;10.33;99.99
66343;DHT22;53144;51.524;5.080;2023-10-31T04:02:20;10.34;99.99
66343;DHT22;53144;51.524;5.080;2023-10-31T04:04:45;10.32;99.99
66343;DHT22;53144;51.524;5.080;2023-10-31T04:07:11;10.38;99.99
66343;DHT22;53144;51.524;5.080;2023-10-31T04:09:36;10.32;99.99
66343;DHT22;53144;51.524;5.080;2023-10-31T04:12:01;10.33;99.99
66343;DHT22;53144;51.524;5.080;2023-10-31T04:14:27;10.36;99.99
66343;DHT22;53144;51.524;5.080;2023-10-31T04:16:52;10.40;99.99
66343;DHT22;53144;51.524;5.080;2023-10-31T04:19:17;10.33;99.99
66343;DHT22;53144;51.524;5.080;2023-10-31T04:21:42;10.32;99.99
66343;DHT22;53144;51.524;5.080;2023-10-31T04:24:08;10.36;99.99
66343;DHT22;53144;51.524;5.080;2023-10-31T04:26:33;10.37;99.99
66343;DHT22;53144;51.524;5.080;2023-10-31T04:28:58;10.36;99.99
66343;DHT22;53144;51.524;5.080;2023-10-31T04:31:24;10.32;99.99
66343;DHT22;53144;51.524;5.080;2023-10-31T04:33:49;10.34;99.99
66343;DHT22;53144;51.524;5.080;2023-10-31T04:36:15;10.36;99.99
66343;DHT22;53144;51.524;5.080;2023-10-31T04:38:40;10.33;99.99
66343;DHT22;53144;51.524;5.080;2023-10-31T04:41:05;10.30;99.99
66343;DHT22;53144;51.524;5.080;2023-10-31T04:43:32;10.30;99.99
66343;DHT22;53144;51.524;5.080;2023-10-31T04:45:57;10.29;99.99
66343;DHT22;53144;51.524;5.080;2023-10-31T04:48:23;10.30;99.99
66343;DHT22;53144;51.524;5.080;2023-10-31T04:50:48;10.26;99.99
66343;DHT22;53144;51.524;5.080;2023-10-31T04:53:13;10.26;99.99
66343;DHT22;53144;51.524;5.080;2023-10-31T04:55:39;10.30;99.99
66343;DHT22;53144;51.524;5.080;2023-10-31T04:58:04;10.26;99.99
66343;DHT22;53144;51.524;5.080;2023-10-31T05:00:29;10.29;99.99
66343;DHT22;53144;51.524;5.080;2023-10-31T05:02:55;10.29;99.99
66343;DHT22;53144;51.524;5.080;2023-10-31T05:05:24;10.23;99.99
66343;DHT22;53144;51.524;5.080;2023-10-31T05:07:49;10.26;99.99
66343;DHT22;53144;51.524;5.080;2023-10-31T05:10:15;10.27;99.99
66343;DHT22;53144;51.524;5.080;2023-10-31T05:12:40;10.32;99.99
66343;DHT22;53144;51.524;5.080;2023-10-31T05:15:06;10.27;99.99
66343;DHT22;53144;51.524;5.080;2023-10-31T05:17:31;10.26;99.99
66343;DHT22;53144;51.524;5.080;2023-10-31T05:19:57;10.29;99.99
66343;DHT22;53144;51.524;5.080;2023-10-31T05:22:22;10.26;99.99
66343;DHT22;53144;51.524;5.080;2023-10-31T05:24:47;10.23;99.99
66343;DHT22;53144;51.524;5.080;2023-10-31T05:27:13;10.19;99.99
66343;DHT22;53144;51.524;5.080;2023-10-31T05:29:39;10.17;99.99
66343;DHT22;53144;51.524;5.080;2023-10-31T05:32:04;10.19;99.99
66343;DHT22;53144;51.524;5.080;2023-10-31T05:34:30;10.20;99.99
66343;DHT22;53144;51.524;5.080;2023-10-31T05:36:55;10.16;99.99
66343;DHT22;53144;51.524;5.080;2023-10-31T05:39:20;10.13;99.99
66343;DHT22;53144;51.524;5.080;2023-10-31T05:41:45;10.14;99.99
66343;DHT22;53144;51.524;5.080;2023-10-31T05:44:11;10.07;99.99
66343;DHT22;53144;51.524;5.080;2023-10-31T05:46:39;10.09;99.99
66343;DHT22;53144;51.524;5.080;2023-10-31T05:49:08;10.05;99.99
66343;DHT22;53144;51.524;5.080;2023-10-31T05:51:33;9.98;99.99
66343;DHT22;53144;51.524;5.080;2023-10-31T05:54:00;9.95;99.99
66343;DHT22;53144;51.524;5.080;2023-10-31T05:56:25;9.93;99.99
66343;DHT22;53144;51.524;5.080;2023-10-31T05:58:54;9.90;99.99
66343;DHT22;53144;51.524;5.080;2023-10-31T06:01:19;9.89;99.99
66343;DHT22;53144;51.524;5.080;2023-10-31T06:03:44;9.85;99.99
66343;DHT22;53144;51.524;5.080;2023-10-31T06:06:10;9.82;99.99
66343;DHT22;53144;51.524;5.080;2023-10-31T06:08:36;9.86;99.99
66343;DHT22;53144;51.524;5.080;2023-10-31T06:11:02;9.89;99.99
66343;DHT22;53144;51.524;5.080;2023-10-31T06:13:28;9.93;99.99
66343;DHT22;53144;51.524;5.080;2023-10-31T06:15:54;9.95;99.99
66343;DHT22;53144;51.524;5.080;2023-10-31T06:18:20;9.99;99.99
66343;DHT22;53144;51.524;5.080;2023-10-31T06:20:45;9.95;99.99
66343;DHT22;53144;51.524;5.080;2023-10-31T06:23:11;9.99;99.99
66343;DHT22;53144;51.524;5.080;2023-10-31T06:25:36;9.99;99.99
66343;DHT22;53144;51.524;5.080;2023-10-31T06:28:01;9.99;99.99
66343;DHT22;53144;51.524;5.080;2023-10-31T06:30:27;10.02;99.99
66343;DHT22;53144;51.524;5.080;2023-10-31T06:32:55;9.98;99.99
66343;DHT22;53144;51.524;5.080;2023-10-31T06:35:20;9.96;99.99
66343;DHT22;53144;51.524;5.080;2023-10-31T06:37:46;9.96;99.99
66343;DHT22;53144;51.524;5.080;2023-10-31T06:40:11;9.93;99.99
66343;DHT22;53144;51.524;5.080;2023-10-31T06:42:36;9.93;99.99
66343;DHT22;53144;51.524;5.080;2023-10-31T06:45:02;10.00;99.99
66343;DHT22;53144;51.524;5.080;2023-10-31T06:47:28;9.99;99.99
66343;DHT22;53144;51.524;5.080;2023-10-31T06:49:53;9.96;99.99
66343;DHT22;53144;51.524;5.080;2023-10-31T06:52:18;9.96;99.99
66343;DHT22;53144;51.524;5.080;2023-10-31T06:54:43;9.95;99.99
66343;DHT22;53144;51.524;5.080;2023-10-31T06:57:09;9.92;99.99
66343;DHT22;53144;51.524;5.080;2023-10-31T06:59:34;9.92;99.99
66343;DHT22;53144;51.524;5.080;2023-10-31T07:02:00;9.96;99.99
66343;DHT22;53144;51.524;5.080;2023-10-31T07:04:25;9.98;99.99
66343;DHT22;53144;51.524;5.080;2023-10-31T07:06:50;10.00;99.99
66343;DHT22;53144;51.524;5.080;2023-10-31T07:09:22;9.98;99.99
66343;DHT22;53144;51.524;5.080;2023-10-31T07:11:47;10.02;99.99
66343;DHT22;53144;51.524;5.080;2023-10-31T07:14:12;10.02;99.99
66343;DHT22;53144;51.524;5.080;2023-10-31T07:16:38;10.03;99.99
66343;DHT22;53144;51.524;5.080;2023-10-31T07:19:03;10.09;99.99
66343;DHT22;53144;51.524;5.080;2023-10-31T07:21:28;10.07;99.99
66343;DHT22;53144;51.524;5.080;2023-10-31T07:23:53;10.09;99.99
66343;DHT22;53144;51.524;5.080;2023-10-31T07:26:20;10.12;99.99
66343;DHT22;53144;51.524;5.080;2023-10-31T07:28:45;10.13;99.99
66343;DHT22;53144;51.524;5.080;2023-10-31T07:31:12;10.09;99.99
66343;DHT22;53144;51.524;5.080;2023-10-31T07:33:38;10.06;99.99
66343;DHT22;53144;51.524;5.080;2023-10-31T07:36:03;10.10;99.99
66343;DHT22;53144;51.524;5.080;2023-10-31T07:38:29;10.13;99.99
66343;DHT22;53144;51.524;5.080;2023-10-31T07:40:54;10.09;99.99
66343;DHT22;53144;51.524;5.080;2023-10-31T07:43:20;10.12;99.99
66343;DHT22;53144;51.524;5.080;2023-10-31T07:45:45;10.10;99.99
66343;DHT22;53144;51.524;5.080;2023-10-31T07:48:10;10.17;99.99
66343;DHT22;53144;51.524;5.080;2023-10-31T07:50:36;10.27;99.99
66343;DHT22;53144;51.524;5.080;2023-10-31T07:53:01;10.24;99.99
66343;DHT22;53144;51.524;5.080;2023-10-31T07:55:26;10.30;99.99
66343;DHT22;53144;51.524;5.080;2023-10-31T07:57:52;10.27;99.99
66343;DHT22;53144;51.524;5.080;2023-10-31T08:00:18;10.30;99.99
66343;DHT22;53144;51.524;5.080;2023-10-31T08:02:43;10.29;99.99
66343;DHT22;53144;51.524;5.080;2023-10-31T08:05:09;10.37;99.99
66343;DHT22;53144;51.524;5.080;2023-10-31T08:07:35;10.32;99.99
66343;DHT22;53144;51.524;5.080;2023-10-31T08:10:01;10.41;99.99
66343;DHT22;53144;51.524;5.080;2023-10-31T08:12:26;10.38;99.99
66343;DHT22;53144;51.524;5.080;2023-10-31T08:14:51;10.36;99.99
66343;DHT22;53144;51.524;5.080;2023-10-31T08:17:17;10.32;99.99
66343;DHT22;53144;51.524;5.080;2023-10-31T08:19:42;10.33;99.99
66343;DHT22;53144;51.524;5.080;2023-10-31T08:22:07;10.34;99.99
66343;DHT22;53144;51.524;5.080;2023-10-31T08:24:33;10.34;99.99
66343;DHT22;53144;51.524;5.080;2023-10-31T08:27:01;10.37;99.99
66343;DHT22;53144;51.524;5.080;2023-10-31T08:29:26;10.30;99.99
66343;DHT22;53144;51.524;5.080;2023-10-31T08:31:51;10.32;99.99
66343;DHT22;53144;51.524;5.080;2023-10-31T08:34:17;10.30;99.99
66343;DHT22;53144;51.524;5.080;2023-10-31T08:36:42;10.30;99.99
66343;DHT22;53144;51.524;5.080;2023-10-31T08:39:07;10.34;99.99
66343;DHT22;53144;51.524;5.080;2023-10-31T08:41:33;10.34;99.99
66343;DHT22;53144;51.524;5.080;2023-10-31T08:43:58;10.40;99.99
66343;DHT22;53144;51.524;5.080;2023-10-31T08:46:24;10.43;99.99
66343;DHT22;53144;51.524;5.080;2023-10-31T08:48:50;10.47;99.99
66343;DHT22;53144;51.524;5.080;2023-10-31T08:51:15;10.44;99.99
66343;DHT22;53144;51.524;5.080;2023-10-31T08:53:40;10.56;99.99
66343;DHT22;53144;51.524;5.080;2023-10-31T08:56:06;10.50;99.99
66343;DHT22;53144;51.524;5.080;2023-10-31T08:58:32;10.56;99.99
66343;DHT22;53144;51.524;5.080;2023-10-31T09:00:57;10.60;99.99
66343;DHT22;53144;51.524;5.080;2023-10-31T09:03:22;10.57;99.99
66343;DHT22;53144;51.524;5.080;2023-10-31T09:05:48;10.60;99.99
66343;DHT22;53144;51.524;5.080;2023-10-31T09:08:13;10.65;99.99
66343;DHT22;53144;51.524;5.080;2023-10-31T09:10:39;10.74;99.99
66343;DHT22;53144;51.524;5.080;2023-10-31T09:13:04;10.67;99.99
66343;DHT22;53144;51.524;5.080;2023-10-31T09:15:30;10.61;99.64
66343;DHT22;53144;51.524;5.080;2023-10-31T09:17:55;10.71;99.44
66343;DHT22;53144;51.524;5.080;2023-10-31T09:20:20;10.79;98.91
66343;DHT22;53144;51.524;5.080;2023-10-31T09:22:46;10.82;99.08
66343;DHT22;53144;51.524;5.080;2023-10-31T09:25:11;10.78;99.33
66343;DHT22;53144;51.524;5.080;2023-10-31T09:27:37;10.79;99.60
66343;DHT22;53144;51.524;5.080;2023-10-31T09:30:03;10.82;99.99
66343;DHT22;53144;51.524;5.080;2023-10-31T09:32:29;10.72;99.22
66343;DHT22;53144;51.524;5.080;2023-10-31T09:34:54;10.78;99.13
66343;DHT22;53144;51.524;5.080;2023-10-31T09:37:20;10.77;99.20
66343;DHT22;53144;51.524;5.080;2023-10-31T09:39:45;10.74;99.23
66343;DHT22;53144;51.524;5.080;2023-10-31T09:42:10;10.84;99.77
66343;DHT22;53144;51.524;5.080;2023-10-31T09:44:36;10.89;99.06
66343;DHT22;53144;51.524;5.080;2023-10-31T09:47:01;10.84;99.12
66343;DHT22;53144;51.524;5.080;2023-10-31T09:49:27;10.95;99.70
66343;DHT22;53144;51.524;5.080;2023-10-31T09:51:53;10.98;99.60
66343;DHT22;53144;51.524;5.080;2023-10-31T09:54:18;10.95;99.53
66343;DHT22;53144;51.524;5.080;2023-10-31T09:56:44;11.02;99.71
66343;DHT22;53144;51.524;5.080;2023-10-31T09:59:10;10.96;98.86
66343;DHT22;53144;51.524;5.080;2023-10-31T10:01:35;10.92;99.16
66343;DHT22;53144;51.524;5.080;2023-10-31T10:04:01;10.96;98.44
66343;DHT22;53144;51.524;5.080;2023-10-31T10:06:26;11.11;98.47
66343;DHT22;53144;51.524;5.080;2023-10-31T10:08:51;11.09;98.19
66343;DHT22;53144;51.524;5.080;2023-10-31T10:11:17;11.43;98.52
66343;DHT22;53144;51.524;5.080;2023-10-31T10:13:42;11.64;98.40
66343;DHT22;53144;51.524;5.080;2023-10-31T10:16:09;11.80;98.25
66343;DHT22;53144;51.524;5.080;2023-10-31T10:18:35;11.78;97.05
66343;DHT22;53144;51.524;5.080;2023-10-31T10:21:03;11.69;97.57
66343;DHT22;53144;51.524;5.080;2023-10-31T10:23:29;11.73;96.72
66343;DHT22;53144;51.524;5.080;2023-10-31T10:25:55;11.93;97.57
66343;DHT22;53144;51.524;5.080;2023-10-31T10:28:24;11.93;97.68
66343;DHT22;53144;51.524;5.080;2023-10-31T10:30:54;11.81;97.03
66343;DHT22;53144;51.524;5.080;2023-10-31T10:33:19;11.83;97.86
66343;DHT22;53144;51.524;5.080;2023-10-31T10:35:45;11.71;97.03
66343;DHT22;53144;51.524;5.080;2023-10-31T10:38:19;11.49;96.89
66343;DHT22;53144;51.524;5.080;2023-10-31T10:40:46;11.47;97.34
66343;DHT22;53144;51.524;5.080;2023-10-31T10:45:37;11.49;98.00
66343;DHT22;53144;51.524;5.080;2023-10-31T10:48:04;11.50;97.57
66343;DHT22;53144;51.524;5.080;2023-10-31T10:50:30;11.44;97.41
66343;DHT22;53144;51.524;5.080;2023-10-31T10:53:40;11.49;97.31
66343;DHT22;53144;51.524;5.080;2023-10-31T10:55:45;11.46;98.15
66343;DHT22;53144;51.524;5.080;2023-10-31T10:58:13;11.52;98.24
66343;DHT22;53144;51.524;5.080;2023-10-31T11:00:44;11.59;97.86
66343;DHT22;53144;51.524;5.080;2023-10-31T11:03:10;11.74;98.19
66343;DHT22;53144;51.524;5.080;2023-10-31T11:05:36;11.71;97.51
66343;DHT22;53144;51.524;5.080;2023-10-31T11:08:01;11.80;96.84
66343;DHT22;53144;51.524;5.080;2023-10-31T11:10:27;11.64;96.02
66343;DHT22;53144;51.524;5.080;2023-10-31T11:12:53;11.81;96.22
66343;DHT22;53144;51.524;5.080;2023-10-31T11:15:20;11.70;95.71
66343;DHT22;53144;51.524;5.080;2023-10-31T11:17:45;11.70;95.77
66343;DHT22;53144;51.524;5.080;2023-10-31T11:20:12;11.70;96.27
66343;DHT22;53144;51.524;5.080;2023-10-31T11:22:42;11.70;96.50
66343;DHT22;53144;51.524;5.080;2023-10-31T11:25:09;11.70;96.98
66343;DHT22;53144;51.524;5.080;2023-10-31T11:27:35;11.75;96.60
66343;DHT22;53144;51.524;5.080;2023-10-31T11:30:45;11.74;96.44
66343;DHT22;53144;51.524;5.080;2023-10-31T11:32:52;11.99;96.54
66343;DHT22;53144;51.524;5.080;2023-10-31T11:35:18;12.11;96.84
66343;DHT22;53144;51.524;5.080;2023-10-31T11:37:43;12.12;95.50
66343;DHT22;53144;51.524;5.080;2023-10-31T11:40:22;12.10;95.64
66343;DHT22;53144;51.524;5.080;2023-10-31T11:42:48;12.02;95.39
66343;DHT22;53144;51.524;5.080;2023-10-31T11:45:28;12.01;96.09
66343;DHT22;53144;51.524;5.080;2023-10-31T11:47:54;11.98;95.45
66343;DHT22;53144;51.524;5.080;2023-10-31T11:50:20;12.02;95.53
66343;DHT22;53144;51.524;5.080;2023-10-31T11:52:58;12.01;95.30
66343;DHT22;53144;51.524;5.080;2023-10-31T11:55:23;12.12;95.04
66343;DHT22;53144;51.524;5.080;2023-10-31T11:57:49;12.26;95.99
66343;DHT22;53144;51.524;5.080;2023-10-31T12:00:21;12.42;95.32
66343;DHT22;53144;51.524;5.080;2023-10-31T12:02:57;12.56;93.78
66343;DHT22;53144;51.524;5.080;2023-10-31T12:05:22;12.52;94.04
66343;DHT22;53144;51.524;5.080;2023-10-31T12:07:47;12.48;93.62
66343;DHT22;53144;51.524;5.080;2023-10-31T12:10:14;12.48;93.50
66343;DHT22;53144;51.524;5.080;2023-10-31T12:12:47;12.48;93.57
66343;DHT22;53144;51.524;5.080;2023-10-31T12:15:12;12.43;93.46
66343;DHT22;53144;51.524;5.080;2023-10-31T12:17:38;12.33;92.83
66343;DHT22;53144;51.524;5.080;2023-10-31T12:20:04;12.24;93.17
66343;DHT22;53144;51.524;5.080;2023-10-31T12:22:30;12.29;92.93
66343;DHT22;53144;51.524;5.080;2023-10-31T12:25:04;12.35;92.50
66343;DHT22;53144;51.524;5.080;2023-10-31T12:27:46;12.41;93.58
66343;DHT22;53144;51.524;5.080;2023-10-31T12:30:12;12.28;94.29
66343;DHT22;53144;51.524;5.080;2023-10-31T12:32:39;12.17;93.64
66343;DHT22;53144;51.524;5.080;2023-10-31T12:35:05;12.10;92.86
66343;DHT22;53144;51.524;5.080;2023-10-31T12:37:31;12.10;94.43
66343;DHT22;53144;51.524;5.080;2023-10-31T12:39:56;12.12;93.41
66343;DHT22;53144;51.524;5.080;2023-10-31T12:42:23;12.17;93.62
66343;DHT22;53144;51.524;5.080;2023-10-31T12:44:54;12.22;93.26
66343;DHT22;53144;51.524;5.080;2023-10-31T12:47:22;12.42;92.32
66343;DHT22;53144;51.524;5.080;2023-10-31T12:49:47;12.55;92.23
66343;DHT22;53144;51.524;5.080;2023-10-31T12:52:13;12.55;91.40
66343;DHT22;53144;51.524;5.080;2023-10-31T12:54:38;12.56;92.25
66343;DHT22;53144;51.524;5.080;2023-10-31T12:57:05;12.57;91.80
66343;DHT22;53144;51.524;5.080;2023-10-31T12:59:31;12.67;93.32
66343;DHT22;53144;51.524;5.080;2023-10-31T13:01:57;12.72;92.87
66343;DHT22;53144;51.524;5.080;2023-10-31T13:04:26;12.70;92.39
66343;DHT22;53144;51.524;5.080;2023-10-31T13:07:05;12.62;92.72
66343;DHT22;53144;51.524;5.080;2023-10-31T13:09:31;12.63;93.92
66343;DHT22;53144;51.524;5.080;2023-10-31T13:11:57;12.57;93.34
66343;DHT22;53144;51.524;5.080;2023-10-31T13:14:22;12.62;92.90
66343;DHT22;53144;51.524;5.080;2023-10-31T13:16:47;12.52;92.95
66343;DHT22;53144;51.524;5.080;2023-10-31T13:19:13;12.50;92.82
66343;DHT22;53144;51.524;5.080;2023-10-31T13:21:38;12.48;92.54
66343;DHT22;53144;51.524;5.080;2023-10-31T13:24:03;12.63;90.60
66343;DHT22;53144;51.524;5.080;2023-10-31T13:26:29;12.67;89.83
66343;DHT22;53144;51.524;5.080;2023-10-31T13:28:54;12.72;89.41
66343;DHT22;53144;51.524;5.080;2023-10-31T13:31:19;12.59;89.44
66343;DHT22;53144;51.524;5.080;2023-10-31T13:33:45;12.57;89.83
66343;DHT22;53144;51.524;5.080;2023-10-31T13:36:11;12.53;90.73
66343;DHT22;53144;51.524;5.080;2023-10-31T13:38:37;12.45;90.87
66343;DHT22;53144;51.524;5.080;2023-10-31T13:41:03;12.29;90.95
66343;DHT22;53144;51.524;5.080;2023-10-31T13:43:28;12.29;90.98
66343;DHT22;53144;51.524;5.080;2023-10-31T13:45:54;12.25;90.95
66343;DHT22;53144;51.524;5.080;2023-10-31T13:48:19;12.20;91.63
66343;DHT22;53144;51.524;5.080;2023-10-31T13:50:44;12.17;92.20
66343;DHT22;53144;51.524;5.080;2023-10-31T13:53:11;12.12;92.09
66343;DHT22;53144;51.524;5.080;2023-10-31T13:55:36;12.11;91.52
66343;DHT22;53144;51.524;5.080;2023-10-31T13:58:02;12.14;92.26
66343;DHT22;53144;51.524;5.080;2023-10-31T14:00:27;11.95;92.75
66343;DHT22;53144;51.524;5.080;2023-10-31T14:02:52;12.06;93.34
66343;DHT22;53144;51.524;5.080;2023-10-31T14:05:17;11.94;92.37
66343;DHT22;53144;51.524;5.080;2023-10-31T14:07:43;11.88;92.81
66343;DHT22;53144;51.524;5.080;2023-10-31T14:10:09;11.83;93.38
66343;DHT22;53144;51.524;5.080;2023-10-31T14:12:34;11.77;93.50
66343;DHT22;53144;51.524;5.080;2023-10-31T14:15:00;11.75;94.08
66343;DHT22;53144;51.524;5.080;2023-10-31T14:17:25;11.66;95.26
66343;DHT22;53144;51.524;5.080;2023-10-31T14:19:51;11.57;96.16
66343;DHT22;53144;51.524;5.080;2023-10-31T14:22:16;11.57;96.81
66343;DHT22;53144;51.524;5.080;2023-10-31T14:24:42;11.47;96.74
66343;DHT22;53144;51.524;5.080;2023-10-31T14:27:07;11.43;97.15
66343;DHT22;53144;51.524;5.080;2023-10-31T14:29:32;11.56;97.70
66343;DHT22;53144;51.524;5.080;2023-10-31T14:32:05;11.47;97.79
66343;DHT22;53144;51.524;5.080;2023-10-31T14:34:30;11.44;98.00
66343;DHT22;53144;51.524;5.080;2023-10-31T14:36:55;11.42;98.14
66343;DHT22;53144;51.524;5.080;2023-10-31T14:39:20;11.44;97.94
66343;DHT22;53144;51.524;5.080;2023-10-31T14:41:49;11.43;98.31
66343;DHT22;53144;51.524;5.080;2023-10-31T14:44:14;11.35;99.04
66343;DHT22;53144;51.524;5.080;2023-10-31T14:46:40;11.27;98.62
66343;DHT22;53144;51.524;5.080;2023-10-31T14:49:06;11.30;99.13
66343;DHT22;53144;51.524;5.080;2023-10-31T14:51:31;11.27;98.83
66343;DHT22;53144;51.524;5.080;2023-10-31T14:53:56;11.23;99.28
66343;DHT22;53144;51.524;5.080;2023-10-31T14:56:23;11.27;99.42
66343;DHT22;53144;51.524;5.080;2023-10-31T14:58:48;11.16;99.20
66343;DHT22;53144;51.524;5.080;2023-10-31T15:01:13;11.22;99.43
66343;DHT22;53144;51.524;5.080;2023-10-31T15:03:41;11.22;99.89
66343;DHT22;53144;51.524;5.080;2023-10-31T15:06:06;11.25;99.80
66343;DHT22;53144;51.524;5.080;2023-10-31T15:08:32;11.23;99.94
66343;DHT22;53144;51.524;5.080;2023-10-31T15:10:58;11.19;99.99
66343;DHT22;53144;51.524;5.080;2023-10-31T15:13:23;11.23;99.99
66343;DHT22;53144;51.524;5.080;2023-10-31T15:15:49;11.26;99.99
66343;DHT22;53144;51.524;5.080;2023-10-31T15:18:14;11.30;99.99
66343;DHT22;53144;51.524;5.080;2023-10-31T15:20:40;11.29;99.99
66343;DHT22;53144;51.524;5.080;2023-10-31T15:23:05;11.30;99.99
66343;DHT22;53144;51.524;5.080;2023-10-31T15:25:30;11.37;99.99
66343;DHT22;53144;51.524;5.080;2023-10-31T15:27:56;11.36;99.99